createdAt,value
2022-09-14T00:01:28.515Z,100476.34
2022-09-14T00:04:00.778Z,100478.31
2022-09-14T00:06:28.967Z,100475.25
2022-09-14T00:08:58.361Z,100480.28
2022-09-14T00:11:26.468Z,100470.53
2022-09-14T00:13:54.380Z,100475.53
2022-09-14T00:16:23.301Z,100477.50
2022-09-14T00:18:56.023Z,100469.00
2022-09-14T00:21:24.363Z,100457.75
2022-09-14T00:23:51.522Z,100458.00
2022-09-14T00:26:22.608Z,100459.41
2022-09-14T00:28:54.524Z,100453.56
2022-09-14T00:31:23.082Z,100446.88
2022-09-14T00:33:51.156Z,100438.53
2022-09-14T00:36:28.941Z,100436.88
2022-09-14T00:38:57.149Z,100439.63
2022-09-14T00:41:26.337Z,100446.88
2022-09-14T00:43:59.745Z,100448.56
2022-09-14T00:46:29.891Z,100444.38
2022-09-14T00:49:00.046Z,100448.00
2022-09-14T00:51:29.380Z,100454.69
2022-09-14T00:53:57.543Z,100462.22
2022-09-14T00:56:25.420Z,100453.88
2022-09-14T00:58:54.685Z,100452.06
2022-09-14T01:01:22.339Z,100446.91
2022-09-14T01:03:49.835Z,100439.91
2022-09-14T01:06:23.246Z,100439.50
2022-09-14T01:09:02.164Z,100443.50
2022-09-14T01:11:51.505Z,100437.06
2022-09-14T01:14:22.404Z,100429.88
2022-09-14T01:16:50.868Z,100430.97
2022-09-14T01:19:42.528Z,100416.22
2022-09-14T01:22:26.770Z,100411.81
2022-09-14T01:25:00.970Z,100408.16
2022-09-14T01:27:41.589Z,100414.16
2022-09-14T01:30:14.929Z,100405.81
2022-09-14T01:32:49.295Z,100405.13
2022-09-14T01:35:35.076Z,100399.84
2022-09-14T01:38:16.241Z,100389.53
2022-09-14T01:40:52.563Z,100388.16
2022-09-14T01:43:35.053Z,100385.63
2022-09-14T01:46:13.412Z,100388.13
2022-09-14T01:48:56.665Z,100382.13
2022-09-14T01:51:34.021Z,100383.78
2022-09-14T01:54:17.310Z,100388.66
2022-09-14T01:57:03.684Z,100384.50
2022-09-14T01:59:37.584Z,100388.63
2022-09-14T02:02:11.327Z,100383.09
2022-09-14T02:05:03.672Z,100377.00
2022-09-14T02:07:31.987Z,100379.78
2022-09-14T02:09:59.558Z,100377.00
2022-09-14T02:12:27.503Z,100370.06
2022-09-14T02:14:54.997Z,100369.94
2022-09-14T02:17:22.946Z,100364.81
2022-09-14T02:19:53.836Z,100363.97
2022-09-14T02:22:21.745Z,100357.16
2022-09-14T02:24:49.353Z,100354.91
2022-09-14T02:27:16.557Z,100356.44
2022-09-14T02:29:44.204Z,100349.50
2022-09-14T02:32:30.069Z,100346.78
2022-09-14T02:34:57.209Z,100335.91
2022-09-14T02:37:24.310Z,100327.41
2022-09-14T02:39:57.336Z,100321.16
2022-09-14T02:42:40.005Z,100319.75
2022-09-14T02:45:07.281Z,100313.88
2022-09-14T02:47:42.924Z,100313.06
2022-09-14T02:50:37.191Z,100316.97
2022-09-14T02:53:10.680Z,100333.38
2022-09-14T02:55:40.456Z,100345.91
2022-09-14T02:58:08.750Z,100339.53
2022-09-14T03:00:37.594Z,100340.59
2022-09-14T03:03:06.062Z,100334.78
2022-09-14T03:05:33.119Z,100339.47
2022-09-14T03:08:00.622Z,100338.66
2022-09-14T03:10:28.478Z,100337.53
2022-09-14T03:12:55.879Z,100333.63
2022-09-14T03:15:23.292Z,100330.03
2022-09-14T03:17:51.014Z,100328.34
2022-09-14T03:20:19.736Z,100322.94
2022-09-14T03:22:47.084Z,100325.03
2022-09-14T03:25:14.480Z,100323.63
2022-09-14T03:27:41.833Z,100318.09
2022-09-14T03:30:09.411Z,100313.34
2022-09-14T03:32:37.655Z,100308.91
2022-09-14T03:35:04.975Z,100308.06
2022-09-14T03:37:32.155Z,100302.25
2022-09-14T03:39:59.230Z,100301.81
2022-09-14T03:42:26.413Z,100313.50
2022-09-14T03:44:53.489Z,100308.06
2022-09-14T03:47:20.552Z,100312.50
2022-09-14T03:49:47.598Z,100305.28
2022-09-14T03:52:14.705Z,100316.94
2022-09-14T03:54:41.779Z,100315.69
2022-09-14T03:57:08.807Z,100316.34
2022-09-14T03:59:39.407Z,100315.06
2022-09-14T04:02:08.941Z,100315.94
2022-09-14T04:04:36.078Z,100322.03
2022-09-14T04:07:03.237Z,100319.22
2022-09-14T04:09:30.303Z,100309.53
2022-09-14T04:11:57.416Z,100322.25
2022-09-14T04:14:25.057Z,100327.25
2022-09-14T04:16:52.144Z,100325.88
2022-09-14T04:19:19.287Z,100314.69
2022-09-14T04:21:46.920Z,100317.66
2022-09-14T04:24:15.887Z,100318.69
2022-09-14T04:26:44.724Z,100320.78
2022-09-14T04:29:12.776Z,100329.81
2022-09-14T04:31:40.532Z,100330.53
2022-09-14T04:34:07.645Z,100331.34
2022-09-14T04:36:34.834Z,100318.03
2022-09-14T04:39:02.691Z,100317.56
2022-09-14T04:41:30.672Z,100327.44
2022-09-14T04:43:57.861Z,100336.88
2022-09-14T04:46:26.593Z,100342.16
2022-09-14T04:48:53.934Z,100346.59
2022-09-14T04:51:22.835Z,100337.22
2022-09-14T04:53:51.283Z,100335.25
2022-09-14T04:56:19.585Z,100339.72
2022-09-14T04:58:51.399Z,100340.81
2022-09-14T05:01:20.283Z,100338.72
2022-09-14T05:03:47.563Z,100339.84
2022-09-14T05:06:19.336Z,100338.59
2022-09-14T05:08:47.169Z,100334.72
2022-09-14T05:11:18.521Z,100332.22
2022-09-14T05:13:49.734Z,100335.03
2022-09-14T05:16:18.967Z,100327.53
2022-09-14T05:18:46.503Z,100339.75
2022-09-14T05:21:18.043Z,100336.94
2022-09-14T05:23:45.752Z,100342.72
2022-09-14T05:26:13.553Z,100335.38
2022-09-14T05:28:40.917Z,100336.09
2022-09-14T05:31:09.341Z,100341.09
2022-09-14T05:33:36.723Z,100335.81
2022-09-14T05:36:04.868Z,100329.13
2022-09-14T05:38:32.717Z,100337.56
2022-09-14T05:40:59.763Z,100347.94
2022-09-14T05:43:28.044Z,100344.09
2022-09-14T05:45:55.476Z,100345.75
2022-09-14T05:48:22.640Z,100337.16
2022-09-14T05:50:57.447Z,100330.53
2022-09-14T05:53:24.570Z,100330.25
2022-09-14T05:56:11.897Z,100330.94
2022-09-14T05:58:39.955Z,100341.22
2022-09-14T06:01:08.120Z,100339.75
2022-09-14T06:03:35.332Z,100340.59
2022-09-14T06:06:02.576Z,100323.63
2022-09-14T06:08:29.844Z,100313.06
2022-09-14T06:10:57.581Z,100315.28
2022-09-14T06:13:24.958Z,100307.22
2022-09-14T06:15:52.231Z,100300.50
2022-09-14T06:18:19.572Z,100299.06
2022-09-14T06:20:51.781Z,100298.53
2022-09-14T06:23:19.185Z,100298.53
2022-09-14T06:25:46.941Z,100299.66
2022-09-14T06:28:15.082Z,100290.44
2022-09-14T06:30:44.363Z,100280.84
2022-09-14T06:33:11.756Z,100296.81
2022-09-14T06:35:39.321Z,100288.44
2022-09-14T06:38:06.666Z,100295.41
2022-09-14T06:40:34.463Z,100308.31
2022-09-14T06:43:02.307Z,100315.59
2022-09-14T06:45:30.886Z,100313.81
2022-09-14T06:47:58.696Z,100326.78
2022-09-14T06:50:25.765Z,100332.78
2022-09-14T06:52:52.890Z,100333.16
2022-09-14T06:55:20.243Z,100346.94
2022-09-14T06:57:48.209Z,100336.94
2022-09-14T07:00:15.786Z,100332.91
2022-09-14T07:02:43.607Z,100324.63
2022-09-14T07:05:11.058Z,100325.13
2022-09-14T07:07:38.408Z,100328.00
2022-09-14T07:10:06.176Z,100331.03
2022-09-14T07:12:33.905Z,100331.31
2022-09-14T07:15:01.344Z,100343.38
2022-09-14T07:17:28.641Z,100356.44
2022-09-14T07:19:55.921Z,100358.81
2022-09-14T07:22:23.185Z,100365.09
2022-09-14T07:24:50.529Z,100365.63
2022-09-14T07:27:17.880Z,100381.44
2022-09-14T07:29:45.431Z,100408.94
2022-09-14T07:32:12.737Z,100417.00
2022-09-14T07:34:40.253Z,100423.53
2022-09-14T07:37:07.661Z,100432.09
2022-09-14T07:39:35.312Z,100429.28
2022-09-14T07:42:02.756Z,100443.56
2022-09-14T07:44:30.044Z,100452.19
2022-09-14T07:46:57.455Z,100451.44
2022-09-14T07:49:24.793Z,100462.06
2022-09-14T07:51:53.536Z,100463.41
2022-09-14T07:54:21.092Z,100467.19
2022-09-14T07:56:50.534Z,100470.66
2022-09-14T07:59:35.014Z,100484.88
2022-09-14T08:02:07.430Z,100479.25
2022-09-14T08:04:40.901Z,100486.72
2022-09-14T08:07:09.112Z,100483.38
2022-09-14T08:09:39.292Z,100481.78
2022-09-14T08:12:06.734Z,100484.38
2022-09-14T08:14:34.041Z,100478.22
2022-09-14T08:17:01.504Z,100470.78
2022-09-14T08:19:29.104Z,100483.09
2022-09-14T08:21:56.425Z,100479.47
2022-09-14T08:24:23.688Z,100476.84
2022-09-14T08:26:51.356Z,100480.03
2022-09-14T08:29:19.540Z,100480.56
2022-09-14T08:31:48.440Z,100481.25
2022-09-14T08:34:17.142Z,100484.84
2022-09-14T08:36:46.117Z,100481.78
2022-09-14T08:39:14.952Z,100487.22
2022-09-14T08:41:56.871Z,100487.19
2022-09-14T08:44:30.953Z,100471.63
2022-09-14T08:47:02.672Z,100471.28
2022-09-14T08:49:47.036Z,100479.19
2022-09-14T08:52:14.574Z,100472.59
2022-09-14T08:54:42.354Z,100480.53
2022-09-14T08:57:18.706Z,100483.97
2022-09-14T09:00:12.766Z,100477.13
2022-09-14T09:03:18.038Z,100486.06
2022-09-14T09:06:26.768Z,100468.97
2022-09-14T09:09:21.825Z,100480.44
2022-09-14T09:11:53.223Z,100486.75
2022-09-14T09:14:57.955Z,100489.50
2022-09-14T09:17:31.485Z,100482.50
2022-09-14T09:20:16.131Z,100486.91
2022-09-14T09:22:50.365Z,100485.50
2022-09-14T09:25:27.200Z,100491.94
2022-09-14T09:28:02.219Z,100491.06
2022-09-14T09:30:31.038Z,100486.41
2022-09-14T09:32:59.525Z,100493.03
2022-09-14T09:35:47.322Z,100508.66
2022-09-14T09:38:26.018Z,100520.28
2022-09-14T09:41:09.204Z,100522.13
2022-09-14T09:43:58.024Z,100519.75
2022-09-14T09:46:25.812Z,100513.41
2022-09-14T09:48:54.681Z,100501.56
2022-09-14T09:51:26.250Z,100487.47
2022-09-14T09:53:59.600Z,100477.19
2022-09-14T09:56:31.896Z,100466.31
2022-09-14T09:58:59.777Z,100465.81
2022-09-14T10:01:31.448Z,100443.69
2022-09-14T10:04:15.344Z,100429.59
2022-09-14T10:06:49.496Z,100429.22
2022-09-14T10:09:21.803Z,100429.59
2022-09-14T10:12:01.554Z,100412.03
2022-09-14T10:14:35.036Z,100404.13
2022-09-14T10:17:15.633Z,100388.84
2022-09-14T10:19:51.498Z,100379.53
2022-09-14T10:22:29.644Z,100364.81
2022-09-14T10:25:00.442Z,100351.34
2022-09-14T10:27:38.369Z,100348.97
2022-09-14T10:30:17.258Z,100326.47
2022-09-14T10:32:52.897Z,100303.06
2022-09-14T10:35:22.118Z,100287.84
2022-09-14T10:38:12.377Z,100265.94
2022-09-14T10:40:44.722Z,100254.53
2022-09-14T10:43:22.742Z,100246.22
2022-09-14T10:45:52.891Z,100232.66
2022-09-14T10:48:26.232Z,100232.25
2022-09-14T10:51:03.089Z,100238.66
2022-09-14T10:54:12.204Z,100233.25
2022-09-14T10:56:54.727Z,100228.00
2022-09-14T10:59:40.514Z,100240.72
2022-09-14T11:02:46.352Z,100255.94
2022-09-14T11:05:30.870Z,100271.66
2022-09-14T11:08:44.354Z,100292.41
2022-09-14T11:11:56.166Z,100293.50
2022-09-14T11:14:47.588Z,100295.94
2022-09-14T11:17:41.289Z,100281.97
2022-09-14T11:20:28.426Z,100255.97
2022-09-14T11:23:04.841Z,100247.13
2022-09-14T11:25:46.954Z,100230.59
2022-09-14T11:28:20.642Z,100222.53
2022-09-14T11:31:06.555Z,100205.81
2022-09-14T11:34:13.062Z,100169.56
2022-09-14T11:37:09.123Z,100164.47
2022-09-14T11:39:45.046Z,100164.94
2022-09-14T11:42:21.395Z,100190.22
2022-09-14T11:44:55.152Z,100199.66
2022-09-14T11:47:24.079Z,100204.34
2022-09-14T11:50:02.957Z,100232.03
2022-09-14T11:52:32.817Z,100246.91
2022-09-14T11:55:02.147Z,100247.78
2022-09-14T11:57:33.370Z,100267.78
2022-09-14T12:00:07.240Z,100266.88
2022-09-14T12:02:39.108Z,100277.59
2022-09-14T12:05:10.442Z,100277.84
2022-09-14T12:07:42.297Z,100255.19
2022-09-14T12:10:18.878Z,100230.16
2022-09-14T12:13:05.413Z,100214.22
2022-09-14T12:15:37.373Z,100193.22
2022-09-14T12:18:07.759Z,100229.34
2022-09-14T12:20:43.242Z,100254.34
2022-09-14T12:23:20.653Z,100254.41
2022-09-14T12:26:06.087Z,100243.09
2022-09-14T12:28:39.783Z,100231.78
2022-09-14T12:31:29.527Z,100227.75
2022-09-14T12:34:15.081Z,100219.44
2022-09-14T12:36:42.642Z,100235.91
2022-09-14T12:39:21.617Z,100230.75
2022-09-14T12:41:49.109Z,100228.06
2022-09-14T12:44:40.418Z,100226.91
2022-09-14T12:47:28.493Z,100246.66
2022-09-14T12:49:58.842Z,100242.44
2022-09-14T12:52:49.624Z,100222.72
2022-09-14T12:55:38.465Z,100230.34
2022-09-14T12:58:23.983Z,100238.88
2022-09-14T13:01:21.307Z,100233.44
2022-09-14T13:03:55.964Z,100231.88
2022-09-14T13:06:26.966Z,100224.16
2022-09-14T13:08:57.980Z,100204.84
2022-09-14T13:11:39.050Z,100228.69
2022-09-14T13:14:12.383Z,100227.59
2022-09-14T13:16:44.709Z,100231.44
2022-09-14T13:19:21.624Z,100218.56
2022-09-14T13:21:51.582Z,100216.97
2022-09-14T13:24:38.761Z,100206.56
2022-09-14T13:27:20.733Z,100201.66
2022-09-14T13:29:56.789Z,100200.94
2022-09-14T13:32:25.422Z,100216.22
2022-09-14T13:34:54.801Z,100201.69
2022-09-14T13:37:23.529Z,100199.72
2022-09-14T13:39:57.130Z,100204.38
2022-09-14T13:42:25.141Z,100205.97
2022-09-14T13:44:53.513Z,100200.03
2022-09-14T13:47:23.668Z,100200.94
2022-09-14T13:49:53.708Z,100201.41
2022-09-14T13:52:33.975Z,100186.22
2022-09-14T13:55:19.236Z,100186.63
2022-09-14T13:58:22.177Z,100193.59
2022-09-14T14:01:04.365Z,100186.91
2022-09-14T14:03:34.882Z,100199.75
2022-09-14T14:06:17.578Z,100191.59
2022-09-14T14:08:45.049Z,100197.91
2022-09-14T14:11:12.441Z,100198.38
2022-09-14T14:13:40.017Z,100195.31
2022-09-14T14:16:18.878Z,100187.19
2022-09-14T14:18:49.598Z,100179.75
2022-09-14T14:21:26.270Z,100178.09
2022-09-14T14:24:15.206Z,100185.16
2022-09-14T14:26:50.864Z,100174.09
2022-09-14T14:29:18.232Z,100185.75
2022-09-14T14:31:45.792Z,100178.94
2022-09-14T14:34:21.955Z,100180.38
2022-09-14T14:36:50.222Z,100177.88
2022-09-14T14:39:21.001Z,100180.88
2022-09-14T14:41:49.372Z,100191.78
2022-09-14T14:44:20.644Z,100177.03
2022-09-14T14:46:48.424Z,100172.75
2022-09-14T14:49:17.781Z,100175.38
2022-09-14T14:51:45.577Z,100166.06
2022-09-14T14:54:16.641Z,100182.47
2022-09-14T14:56:46.576Z,100175.03
2022-09-14T14:59:19.912Z,100172.75
2022-09-14T15:01:52.440Z,100174.06
2022-09-14T15:04:20.272Z,100174.34
2022-09-14T15:06:48.142Z,100173.63
2022-09-14T15:09:27.657Z,100182.25
2022-09-14T15:11:55.845Z,100175.91
2022-09-14T15:14:27.624Z,100182.00
2022-09-14T15:16:59.683Z,100189.16
2022-09-14T15:19:28.039Z,100191.22
2022-09-14T15:22:00.784Z,100200.97
2022-09-14T15:24:29.601Z,100201.69
2022-09-14T15:26:57.497Z,100210.75
2022-09-14T15:29:24.872Z,100207.59
2022-09-14T15:31:52.302Z,100207.78
2022-09-14T15:34:19.739Z,100218.63
2022-09-14T15:36:51.443Z,100215.00
2022-09-14T15:39:27.794Z,100208.69
2022-09-14T15:41:56.120Z,100208.16
2022-09-14T15:44:23.684Z,100192.78
2022-09-14T15:46:51.668Z,100186.88
2022-09-14T15:49:22.724Z,100187.97
2022-09-14T15:51:53.668Z,100201.50
2022-09-14T15:54:23.290Z,100215.09
2022-09-14T15:56:55.468Z,100212.19
2022-09-14T15:59:22.862Z,100213.88
2022-09-14T16:01:50.624Z,100211.06
2022-09-14T16:04:18.972Z,100207.63
2022-09-14T16:06:46.349Z,100224.75
2022-09-14T16:09:15.407Z,100212.88
2022-09-14T16:11:42.956Z,100210.16
2022-09-14T16:14:11.365Z,100214.94
2022-09-14T16:16:39.646Z,100201.97
2022-09-14T16:19:09.776Z,100189.66
2022-09-14T16:21:38.076Z,100187.38
2022-09-14T16:24:08.087Z,100174.56
2022-09-14T16:26:37.111Z,100166.59
2022-09-14T16:29:06.780Z,100158.47
2022-09-14T16:31:40.445Z,100166.50
2022-09-14T16:34:14.730Z,100168.97
2022-09-14T16:36:42.603Z,100166.81
2022-09-14T16:39:12.857Z,100164.47
2022-09-14T16:41:42.160Z,100168.00
2022-09-14T16:44:17.135Z,100162.16
2022-09-14T16:46:45.079Z,100148.91
2022-09-14T16:49:12.793Z,100146.56
2022-09-14T16:51:40.312Z,100140.09
2022-09-14T16:54:07.846Z,100142.28
2022-09-14T16:56:37.327Z,100134.28
2022-09-14T16:59:05.984Z,100129.31
2022-09-14T17:01:39.327Z,100126.66
2022-09-14T17:04:13.252Z,100130.28
2022-09-14T17:06:43.218Z,100133.78
2022-09-14T17:09:16.479Z,100131.28
2022-09-14T17:11:44.465Z,100114.03
2022-09-14T17:14:17.863Z,100117.69
2022-09-14T17:16:45.271Z,100118.97
2022-09-14T17:19:13.632Z,100116.69
2022-09-14T17:21:43.163Z,100122.28
2022-09-14T17:24:12.051Z,100109.00
2022-09-14T17:26:40.256Z,100100.41
2022-09-14T17:29:08.237Z,100084.00
2022-09-14T17:31:40.253Z,100089.63
2022-09-14T17:34:10.365Z,100095.75
2022-09-14T17:36:38.204Z,100099.09
2022-09-14T17:39:11.405Z,100099.44
2022-09-14T17:41:41.155Z,100100.09
2022-09-14T17:44:11.702Z,100109.69
2022-09-14T17:46:48.232Z,100099.75
2022-09-14T17:49:21.507Z,100103.84
2022-09-14T17:51:49.354Z,100112.22
2022-09-14T17:54:17.701Z,100122.13
2022-09-14T17:56:45.226Z,100130.16
2022-09-14T17:59:20.114Z,100125.78
2022-09-14T18:01:48.770Z,100120.63
2022-09-14T18:04:16.779Z,100122.69
2022-09-14T18:06:46.619Z,100117.75
2022-09-14T18:09:22.567Z,100119.44
2022-09-14T18:11:50.719Z,100128.47
2022-09-14T18:14:18.249Z,100125.16
2022-09-14T18:16:46.111Z,100114.25
2022-09-14T18:19:14.153Z,100115.91
2022-09-14T18:21:42.504Z,100120.03
2022-09-14T18:24:12.223Z,100131.13
2022-09-14T18:26:39.627Z,100127.44
2022-09-14T18:29:07.108Z,100124.06
2022-09-14T18:31:34.624Z,100116.75
2022-09-14T18:34:02.445Z,100125.63
2022-09-14T18:36:30.172Z,100130.94
2022-09-14T18:38:58.663Z,100131.22
2022-09-14T18:41:29.443Z,100138.81
2022-09-14T18:43:58.148Z,100134.28
2022-09-14T18:46:28.092Z,100133.84
2022-09-14T18:48:58.973Z,100131.59
2022-09-14T18:51:28.116Z,100128.97
2022-09-14T18:53:57.517Z,100137.91
2022-09-14T18:56:25.244Z,100144.13
2022-09-14T18:58:52.816Z,100146.72
2022-09-14T19:01:21.147Z,100140.34
2022-09-14T19:03:50.832Z,100153.91
2022-09-14T19:06:19.389Z,100157.00
2022-09-14T19:08:47.630Z,100159.88
2022-09-14T19:11:17.599Z,100152.63
2022-09-14T19:13:47.102Z,100155.28
2022-09-14T19:16:18.404Z,100163.50
2022-09-14T19:18:51.253Z,100158.84
2022-09-14T19:21:24.314Z,100155.72
2022-09-14T19:24:03.671Z,100166.94
2022-09-14T19:26:35.935Z,100163.50
2022-09-14T19:29:05.706Z,100166.94
2022-09-14T19:31:34.207Z,100164.84
2022-09-14T19:34:05.273Z,100162.91
2022-09-14T19:36:37.772Z,100156.34
2022-09-14T19:39:06.979Z,100156.44
2022-09-14T19:41:35.787Z,100154.56
2022-09-14T19:44:09.476Z,100155.94
2022-09-14T19:46:39.832Z,100160.69
2022-09-14T19:49:17.015Z,100147.06
2022-09-14T19:51:45.663Z,100155.84
2022-09-14T19:54:14.629Z,100151.53
2022-09-14T19:56:42.893Z,100151.06
2022-09-14T19:59:10.837Z,100153.59
2022-09-14T20:01:39.629Z,100146.41
2022-09-14T20:04:08.303Z,100141.34
2022-09-14T20:06:38.228Z,100139.22
2022-09-14T20:09:24.493Z,100130.31
2022-09-14T20:11:53.001Z,100130.31
2022-09-14T20:14:22.252Z,100143.16
2022-09-14T20:16:54.957Z,100141.19
2022-09-14T20:19:24.213Z,100151.50
2022-09-14T20:21:52.985Z,100148.75
2022-09-14T20:24:25.970Z,100152.38
2022-09-14T20:26:55.952Z,100148.00
2022-09-14T20:29:25.383Z,100150.22
2022-09-14T20:31:53.581Z,100142.63
2022-09-14T20:34:21.755Z,100142.72
2022-09-14T20:36:50.558Z,100146.34
2022-09-14T20:39:22.199Z,100138.81
2022-09-14T20:41:50.728Z,100132.59
2022-09-14T20:44:22.375Z,100133.50
2022-09-14T20:46:51.071Z,100131.00
2022-09-14T20:49:20.806Z,100130.88
2022-09-14T20:51:48.842Z,100119.31
2022-09-14T20:54:17.329Z,100122.53
2022-09-14T20:56:46.316Z,100119.53
2022-09-14T20:59:15.512Z,100105.59
2022-09-14T21:01:44.220Z,100110.53
2022-09-14T21:04:15.784Z,100110.38
2022-09-14T21:06:44.691Z,100098.94
2022-09-14T21:09:12.466Z,100096.69
2022-09-14T21:11:39.677Z,100100.69
2022-09-14T21:14:07.315Z,100091.31
2022-09-14T21:16:36.950Z,100092.59
2022-09-14T21:19:06.200Z,100088.66
2022-09-14T21:21:33.730Z,100092.59
2022-09-14T21:24:01.697Z,100102.59
2022-09-14T21:26:31.576Z,100094.72
2022-09-14T21:29:01.061Z,100098.66
2022-09-14T21:31:29.945Z,100089.06
2022-09-14T21:33:58.901Z,100090.09
2022-09-14T21:36:27.777Z,100084.28
2022-09-14T21:38:56.244Z,100088.19
2022-09-14T21:41:24.353Z,100080.16
2022-09-14T21:43:51.963Z,100082.91
2022-09-14T21:46:19.629Z,100084.19
2022-09-14T21:48:47.504Z,100084.28
2022-09-14T21:51:18.825Z,100079.56
2022-09-14T21:53:56.684Z,100072.50
2022-09-14T21:56:25.186Z,100070.56
2022-09-14T21:58:53.322Z,100067.09
2022-09-14T22:01:21.984Z,100063.66
2022-09-14T22:03:51.511Z,100067.41
2022-09-14T22:06:19.765Z,100071.28
2022-09-14T22:08:47.789Z,100076.84
2022-09-14T22:11:22.800Z,100068.97
2022-09-14T22:13:54.673Z,100073.50
2022-09-14T22:16:23.351Z,100069.41
2022-09-14T22:18:53.359Z,100082.41
2022-09-14T22:21:21.492Z,100080.53
2022-09-14T22:23:50.911Z,100079.69
2022-09-14T22:26:20.094Z,100081.63
2022-09-14T22:28:48.365Z,100075.28
2022-09-14T22:31:16.805Z,100071.38
2022-09-14T22:33:44.130Z,100065.19
2022-09-14T22:36:12.220Z,100063.84
2022-09-14T22:38:41.082Z,100064.13
2022-09-14T22:41:10.428Z,100067.81
2022-09-14T22:43:38.355Z,100073.03
2022-09-14T22:46:06.161Z,100068.75
2022-09-14T22:48:34.093Z,100065.53
2022-09-14T22:51:02.549Z,100069.41
2022-09-14T22:53:30.890Z,100076.66
2022-09-14T22:55:59.287Z,100073.72
2022-09-14T22:58:28.278Z,100073.88
2022-09-14T23:00:55.539Z,100069.47
2022-09-14T23:03:23.247Z,100061.56
2022-09-14T23:05:51.660Z,100071.97
2022-09-14T23:08:19.370Z,100069.50
2022-09-14T23:10:46.611Z,100061.75
2022-09-14T23:13:14.477Z,100062.41
2022-09-14T23:15:42.030Z,100063.69
2022-09-14T23:18:09.650Z,100062.31
2022-09-14T23:20:38.135Z,100065.94
2022-09-14T23:23:05.917Z,100068.28
2022-09-14T23:25:37.398Z,100069.84
2022-09-14T23:28:05.488Z,100069.25
2022-09-14T23:30:33.097Z,100069.25
2022-09-14T23:33:00.854Z,100071.50
2022-09-14T23:35:28.957Z,100056.81
2022-09-14T23:37:56.690Z,100059.03
2022-09-14T23:40:23.942Z,100055.28
2022-09-14T23:42:54.197Z,100057.66
2022-09-14T23:45:21.567Z,100042.94
2022-09-14T23:47:49.627Z,100050.34
2022-09-14T23:50:17.582Z,100051.53
2022-09-14T23:52:44.849Z,100044.56
2022-09-14T23:55:12.100Z,100039.44
2022-09-14T23:57:39.463Z,100033.34
